Time;durP1;ratioP1;P1;durP2;ratioP2;P2;SDS_P1;SDS_P2;PMS_P1;PMS_P2;Temp;Humidity;BMP_temperature;BMP_pressure;BME280_temperature;BME280_humidity;BME280_pressure;Samples;Min_cycle;Max_cycle;Signal;HPM_P1;HPM_P2
2021/10/29 00:02:15;;;;;;;27.93;19.07;;;10.20;99.90;;;;;;5013002;28;20302;-74
2021/10/29 00:04:41;;;;;;;28.00;18.30;;;10.20;99.90;;;;;;5011764;28;20444;-75
2021/10/29 00:07:08;;;;;;;24.97;18.37;;;10.30;99.90;;;;;;5010948;28;20686;-75
2021/10/29 00:09:35;;;;;;;24.80;16.50;;;10.30;99.90;;;;;;5014640;28;20288;-74
2021/10/29 00:12:01;;;;;;;35.33;18.30;;;10.10;99.90;;;;;;5011507;28;20509;-74
2021/10/29 00:14:30;;;;;;;29.63;19.70;;;10.20;99.90;;;;;;5011117;28;20447;-76
2021/10/29 00:16:56;;;;;;;30.77;20.30;;;10.30;99.90;;;;;;5011276;28;20432;-74
2021/10/29 00:19:22;;;;;;;39.67;19.70;;;10.10;99.90;;;;;;5009284;28;20443;-74
2021/10/29 00:21:47;;;;;;;28.73;19.13;;;10.20;99.90;;;;;;5009636;28;20255;-75
2021/10/29 00:24:13;;;;;;;24.50;17.33;;;10.20;99.90;;;;;;5004167;28;20209;-75
2021/10/29 00:26:39;;;;;;;27.13;19.10;;;10.20;99.90;;;;;;5014581;28;20275;-73
2021/10/29 00:29:05;;;;;;;30.67;17.67;;;10.20;99.90;;;;;;5008134;28;20998;-74
2021/10/29 00:31:30;;;;;;;28.57;17.40;;;10.20;99.90;;;;;;5015258;28;20959;-75
2021/10/29 00:33:56;;;;;;;39.40;19.27;;;10.20;99.90;;;;;;5009021;28;20236;-75
2021/10/29 00:36:22;;;;;;;27.80;19.17;;;10.10;99.90;;;;;;5010047;28;20271;-74
2021/10/29 00:38:47;;;;;;;30.10;17.60;;;10.00;99.90;;;;;;5006790;28;20221;-76
2021/10/29 00:41:13;;;;;;;33.03;19.33;;;10.10;99.90;;;;;;5010012;28;20221;-74
2021/10/29 00:43:39;;;;;;;29.70;18.60;;;10.10;99.90;;;;;;5006861;28;20217;-75
2021/10/29 00:46:04;;;;;;;27.20;19.07;;;10.00;99.90;;;;;;4973296;28;20208;-75
2021/10/29 00:48:30;;;;;;;29.70;17.17;;;10.10;99.90;;;;;;5008907;28;20665;-75
2021/10/29 00:50:56;;;;;;;25.73;18.20;;;9.90;99.90;;;;;;5004356;28;20252;-77
2021/10/29 00:53:23;;;;;;;26.73;16.97;;;9.90;99.90;;;;;;4997097;28;20243;-76
2021/10/29 00:55:49;;;;;;;23.00;16.50;;;10.00;99.90;;;;;;4990739;28;20447;-76
2021/10/29 00:58:15;;;;;;;31.03;17.57;;;10.10;99.90;;;;;;4991417;28;20885;-74
2021/10/29 01:00:40;;;;;;;23.60;18.03;;;9.80;99.90;;;;;;5006280;28;20503;-76
2021/10/29 01:03:06;;;;;;;22.30;15.63;;;9.20;99.90;;;;;;5010351;28;20201;-76
2021/10/29 01:05:32;;;;;;;21.47;15.87;;;9.40;99.90;;;;;;5012190;28;20200;-75
2021/10/29 01:07:59;;;;;;;23.57;15.90;;;9.70;99.90;;;;;;5002954;28;20200;-75
2021/10/29 01:10:31;;;;;;;20.70;16.47;;;9.80;99.90;;;;;;5011569;28;20496;-75
2021/10/29 01:12:57;;;;;;;21.73;15.40;;;10.00;99.90;;;;;;5007752;28;20926;-73
2021/10/29 01:15:22;;;;;;;27.37;16.60;;;9.80;99.90;;;;;;5009420;28;20463;-74
2021/10/29 01:17:51;;;;;;;28.10;17.00;;;9.80;99.90;;;;;;5007481;28;20447;-74
2021/10/29 01:20:24;;;;;;;36.27;16.20;;;9.90;99.90;;;;;;4997043;28;20292;-74
2021/10/29 01:22:51;;;;;;;19.50;15.80;;;9.70;99.90;;;;;;4986283;28;20982;-74
2021/10/29 01:25:18;;;;;;;20.63;15.10;;;9.60;99.90;;;;;;4990133;28;20475;-74
2021/10/29 01:27:43;;;;;;;21.40;15.93;;;9.80;99.90;;;;;;5007144;28;20456;-76
2021/10/29 01:30:10;;;;;;;21.57;15.13;;;9.80;99.90;;;;;;5005674;28;20439;-75
2021/10/29 01:32:37;;;;;;;22.17;15.33;;;9.90;99.90;;;;;;5006227;28;20454;-77
2021/10/29 01:35:04;;;;;;;22.00;15.67;;;10.00;99.90;;;;;;4995034;28;20450;-75
2021/10/29 01:37:29;;;;;;;21.27;15.00;;;10.00;99.90;;;;;;5006351;28;20439;-75
2021/10/29 01:39:55;;;;;;;28.00;16.40;;;10.00;99.90;;;;;;5006414;28;21006;-75
2021/10/29 01:42:21;;;;;;;32.03;15.17;;;9.80;99.90;;;;;;5006153;28;20635;-73
2021/10/29 01:44:47;;;;;;;24.50;16.10;;;9.90;99.90;;;;;;5006999;28;20189;-75
2021/10/29 01:47:13;;;;;;;22.40;15.50;;;9.80;99.90;;;;;;5004513;28;20439;-75
2021/10/29 01:49:41;;;;;;;25.37;16.23;;;9.70;99.90;;;;;;5006440;28;20498;-75
2021/10/29 01:52:10;;;;;;;23.70;16.03;;;9.90;99.90;;;;;;5010606;28;20468;-74
2021/10/29 01:54:39;;;;;;;21.57;15.87;;;10.10;99.90;;;;;;5004427;28;20474;-76
2021/10/29 01:57:05;;;;;;;22.33;17.27;;;10.10;99.90;;;;;;5007829;28;20496;-75
2021/10/29 01:59:30;;;;;;;23.20;16.30;;;10.00;99.90;;;;;;5003709;28;20444;-74
2021/10/29 02:01:56;;;;;;;21.20;14.80;;;10.10;99.90;;;;;;5004532;28;20480;-75
2021/10/29 02:04:22;;;;;;;24.17;16.67;;;10.00;99.90;;;;;;5003532;28;20655;-74
2021/10/29 02:06:48;;;;;;;24.60;16.00;;;9.90;99.90;;;;;;5005629;28;20185;-75
2021/10/29 02:09:14;;;;;;;23.13;16.33;;;9.90;99.90;;;;;;4990827;28;20815;-74
2021/10/29 02:11:41;;;;;;;23.40;14.60;;;10.00;99.90;;;;;;5003030;28;21156;-73
2021/10/29 02:14:07;;;;;;;20.67;15.57;;;10.10;99.90;;;;;;5007601;28;20452;-75
2021/10/29 02:16:34;;;;;;;27.43;15.00;;;9.90;99.90;;;;;;5003525;28;20439;-73
2021/10/29 02:19:00;;;;;;;21.80;15.03;;;9.60;99.90;;;;;;5006325;28;20829;-75
2021/10/29 02:21:28;;;;;;;17.93;14.23;;;9.80;99.90;;;;;;5004626;28;20479;-75
2021/10/29 02:23:53;;;;;;;21.57;15.20;;;9.90;99.90;;;;;;5006405;28;20558;-75
2021/10/29 02:26:19;;;;;;;17.93;13.83;;;10.10;99.90;;;;;;5003051;28;20519;-75
2021/10/29 02:28:45;;;;;;;21.10;15.50;;;9.80;99.90;;;;;;5002212;28;20204;-74
2021/10/29 02:31:11;;;;;;;21.47;16.60;;;9.80;99.90;;;;;;5006455;28;20184;-74
2021/10/29 02:33:37;;;;;;;19.60;15.47;;;9.80;99.90;;;;;;5005713;28;20800;-73
2021/10/29 02:36:03;;;;;;;20.10;13.73;;;10.00;99.90;;;;;;5006537;28;20448;-74
2021/10/29 02:38:28;;;;;;;21.80;15.17;;;10.10;99.90;;;;;;5001908;28;20189;-76
2021/10/29 02:40:54;;;;;;;17.60;14.10;;;10.10;99.90;;;;;;4973350;28;20483;-75
2021/10/29 02:43:20;;;;;;;25.13;15.00;;;9.90;99.90;;;;;;5003850;28;20302;-77
2021/10/29 02:45:45;;;;;;;21.30;15.00;;;9.70;99.90;;;;;;4998418;28;20204;-74
2021/10/29 02:48:11;;;;;;;25.27;14.83;;;9.70;99.90;;;;;;5006795;28;20552;-75
2021/10/29 02:50:37;;;;;;;23.60;15.13;;;9.70;99.90;;;;;;5005496;28;20204;-75
2021/10/29 02:53:04;;;;;;;17.33;13.80;;;9.80;99.90;;;;;;5004685;28;20480;-74
2021/10/29 02:55:31;;;;;;;16.90;14.00;;;9.90;99.90;;;;;;5009392;28;20430;-75
2021/10/29 02:57:57;;;;;;;15.50;12.47;;;9.90;99.90;;;;;;5002073;28;20823;-75
2021/10/29 03:00:22;;;;;;;17.10;14.00;;;9.90;99.90;;;;;;5004089;28;20468;-75
2021/10/29 03:02:48;;;;;;;21.23;14.20;;;9.70;99.90;;;;;;5003993;28;20225;-74
2021/10/29 03:05:15;;;;;;;18.37;15.13;;;9.70;99.90;;;;;;5004451;28;20208;-74
2021/10/29 03:07:43;;;;;;;19.77;15.40;;;9.70;99.90;;;;;;5003233;28;20185;-75
2021/10/29 03:10:11;;;;;;;20.60;15.20;;;9.70;99.90;;;;;;5003264;28;20519;-75
2021/10/29 03:12:37;;;;;;;24.90;14.80;;;9.70;99.90;;;;;;4995244;28;20460;-75
2021/10/29 03:15:04;;;;;;;17.27;13.50;;;9.60;99.90;;;;;;5003402;28;20848;-74
2021/10/29 03:17:30;;;;;;;16.57;14.37;;;9.50;99.90;;;;;;5003557;28;20448;-76
2021/10/29 03:19:56;;;;;;;23.17;16.70;;;9.40;99.90;;;;;;5004358;28;20918;-75
2021/10/29 03:22:22;;;;;;;22.70;14.03;;;9.30;99.90;;;;;;5005670;28;20483;-75
2021/10/29 03:24:47;;;;;;;19.80;16.03;;;9.20;99.90;;;;;;5002351;28;20185;-75
2021/10/29 03:27:13;;;;;;;17.70;14.00;;;9.10;99.90;;;;;;5002237;28;20189;-76
2021/10/29 03:29:39;;;;;;;22.27;14.80;;;8.90;99.90;;;;;;5003942;28;20232;-75
2021/10/29 03:32:06;;;;;;;16.60;13.40;;;9.20;99.90;;;;;;5003954;28;20823;-75
2021/10/29 03:34:32;;;;;;;20.73;15.20;;;9.40;99.90;;;;;;5006023;28;20440;-75
2021/10/29 03:36:58;;;;;;;19.10;14.00;;;9.50;99.90;;;;;;5002806;28;20438;-76
2021/10/29 03:39:30;;;;;;;20.80;14.30;;;9.30;99.90;;;;;;5006573;28;20181;-75
2021/10/29 03:41:59;;;;;;;16.30;13.00;;;9.30;99.90;;;;;;4990697;28;22143;-75
2021/10/29 03:46:57;;;;;;;23.13;12.80;;;9.20;99.90;;;;;;5004886;28;20441;-75
2021/10/29 03:49:38;;;;;;;19.30;13.33;;;8.90;99.90;;;;;;4988624;28;20451;-74
2021/10/29 03:52:24;;;;;;;17.47;13.53;;;8.70;99.90;;;;;;5006641;28;20436;-75
2021/10/29 03:54:55;;;;;;;25.30;14.17;;;8.70;99.90;;;;;;5001941;28;20452;-74
2021/10/29 03:59:47;;;;;;;18.13;13.87;;;8.60;99.90;;;;;;5004975;28;20551;-75
2021/10/29 04:02:12;;;;;;;18.47;13.30;;;8.70;99.90;;;;;;5004437;28;20228;-76
2021/10/29 04:04:38;;;;;;;18.80;13.57;;;8.90;99.90;;;;;;5011433;28;20654;-77
2021/10/29 04:07:04;;;;;;;23.50;14.67;;;8.90;99.90;;;;;;5002331;28;20189;-75
2021/10/29 04:09:30;;;;;;;20.37;14.07;;;8.80;99.90;;;;;;5007411;28;20181;-76
2021/10/29 04:11:55;;;;;;;21.63;13.97;;;8.70;99.90;;;;;;5002826;28;20219;-76
2021/10/29 04:14:26;;;;;;;23.23;15.00;;;8.90;99.90;;;;;;5007001;28;20476;-76
2021/10/29 04:16:51;;;;;;;27.90;13.50;;;8.80;99.90;;;;;;5009320;28;20225;-75
2021/10/29 04:19:17;;;;;;;22.33;14.60;;;8.90;99.90;;;;;;5008904;28;20617;-76
2021/10/29 04:21:43;;;;;;;31.10;14.97;;;8.90;99.90;;;;;;5007494;28;20303;-76
2021/10/29 04:24:08;;;;;;;24.70;15.17;;;8.90;99.90;;;;;;5004723;28;20225;-75
2021/10/29 04:26:36;;;;;;;28.57;15.47;;;8.90;99.90;;;;;;5002783;28;20193;-75
2021/10/29 04:29:12;;;;;;;24.27;15.07;;;8.90;99.90;;;;;;5005996;28;20189;-76
2021/10/29 04:31:46;;;;;;;24.23;14.17;;;8.30;99.90;;;;;;5005892;28;20848;-76
2021/10/29 04:34:12;;;;;;;25.23;15.90;;;8.50;99.90;;;;;;4998842;28;20440;-75
2021/10/29 04:36:38;;;;;;;21.03;14.90;;;8.90;99.90;;;;;;5011660;28;20531;-76
2021/10/29 04:39:10;;;;;;;22.07;14.40;;;8.60;99.90;;;;;;5010238;28;20193;-75
2021/10/29 04:41:35;;;;;;;22.10;14.50;;;8.90;99.90;;;;;;5005831;28;20209;-75
2021/10/29 04:44:01;;;;;;;23.77;15.63;;;9.00;99.90;;;;;;5007753;28;20452;-76
2021/10/29 04:46:27;;;;;;;25.33;14.87;;;9.10;99.90;;;;;;5005111;28;20216;-76
2021/10/29 04:48:52;;;;;;;23.30;14.13;;;9.10;99.90;;;;;;5005155;28;20665;-77
2021/10/29 04:51:18;;;;;;;21.80;13.17;;;9.20;99.90;;;;;;5010148;28;20188;-75
2021/10/29 04:53:43;;;;;;;21.83;15.10;;;9.20;99.90;;;;;;4989965;28;20214;-75
2021/10/29 04:56:09;;;;;;;25.00;13.80;;;9.10;99.90;;;;;;4998745;28;20197;-74
2021/10/29 04:58:35;;;;;;;19.60;12.97;;;9.20;99.90;;;;;;5001270;28;20197;-77
2021/10/29 05:01:00;;;;;;;18.73;13.63;;;8.90;99.90;;;;;;5011949;28;20730;-76
2021/10/29 05:03:26;;;;;;;16.47;11.70;;;8.90;99.90;;;;;;5006962;28;20209;-77
2021/10/29 05:05:52;;;;;;;17.70;12.87;;;8.80;99.90;;;;;;5003493;28;20225;-76
2021/10/29 05:08:17;;;;;;;16.40;11.07;;;8.60;99.90;;;;;;5010187;28;20181;-78
2021/10/29 05:10:43;;;;;;;20.93;14.13;;;8.90;99.90;;;;;;4988461;28;20204;-77
2021/10/29 05:13:08;;;;;;;20.80;12.97;;;8.90;99.90;;;;;;5013372;28;20209;-77
2021/10/29 05:15:34;;;;;;;22.53;13.50;;;8.80;99.90;;;;;;5003652;28;20257;-75
2021/10/29 05:18:01;;;;;;;20.10;13.00;;;9.00;99.90;;;;;;5000071;28;20280;-76
2021/10/29 05:20:27;;;;;;;18.53;14.00;;;8.90;99.90;;;;;;4989092;28;20484;-77
2021/10/29 05:22:52;;;;;;;20.63;13.43;;;8.90;99.90;;;;;;5001060;28;20496;-74
2021/10/29 05:25:18;;;;;;;21.03;13.30;;;9.10;99.90;;;;;;4999065;28;20428;-76
2021/10/29 05:27:44;;;;;;;22.53;12.77;;;9.10;99.90;;;;;;5002801;28;20732;-76
2021/10/29 05:30:11;;;;;;;19.13;11.83;;;9.10;99.90;;;;;;5000640;28;20193;-76
2021/10/29 05:32:40;;;;;;;16.73;11.33;;;9.10;99.90;;;;;;5006103;28;20208;-75
2021/10/29 05:35:07;;;;;;;20.27;12.27;;;9.10;99.90;;;;;;5001476;28;20483;-76
2021/10/29 05:37:35;;;;;;;18.70;11.53;;;9.10;99.90;;;;;;4992446;28;20899;-76
2021/10/29 05:40:00;;;;;;;19.03;11.90;;;9.10;99.90;;;;;;4999448;28;20478;-76
2021/10/29 05:42:27;;;;;;;14.13;11.50;;;9.20;99.90;;;;;;5008060;28;21029;-75
2021/10/29 05:44:54;;;;;;;17.13;11.23;;;9.20;99.90;;;;;;5004850;28;20189;-75
2021/10/29 05:47:20;;;;;;;20.97;11.50;;;9.20;99.90;;;;;;5007244;28;20428;-75
2021/10/29 05:49:47;;;;;;;15.83;11.27;;;9.20;99.90;;;;;;5007505;28;20882;-76
2021/10/29 05:52:21;;;;;;;16.37;11.67;;;9.20;99.90;;;;;;4997296;28;20530;-76
2021/10/29 05:57:23;;;;;;;24.37;11.93;;;9.00;99.90;;;;;;4998113;28;20895;-76
2021/10/29 05:59:49;;;;;;;16.60;11.57;;;8.90;99.90;;;;;;5007922;28;20446;-76
2021/10/29 06:02:15;;;;;;;20.17;10.87;;;8.90;99.90;;;;;;5004469;28;20475;-76
2021/10/29 06:04:40;;;;;;;18.37;11.10;;;8.90;99.90;;;;;;5001827;28;21045;-75
2021/10/29 06:07:06;;;;;;;16.07;11.00;;;8.90;99.90;;;;;;5006151;28;20648;-76
2021/10/29 06:09:34;;;;;;;11.87;10.53;;;9.00;99.90;;;;;;4987227;28;20575;-76
2021/10/29 06:12:01;;;;;;;13.13;9.20;;;8.70;99.90;;;;;;4992719;28;20193;-74
2021/10/29 06:14:27;;;;;;;11.40;8.03;;;8.70;99.90;;;;;;4992790;28;20451;-74
2021/10/29 06:16:57;;;;;;;9.77;7.93;;;8.90;99.90;;;;;;5000261;28;20439;-75
2021/10/29 06:19:22;;;;;;;8.90;7.27;;;9.00;99.90;;;;;;5004100;28;21203;-75
2021/10/29 06:24:17;;;;;;;8.13;7.13;;;8.90;99.90;;;;;;5001929;28;20191;-73
2021/10/29 06:26:50;;;;;;;8.53;7.53;;;8.80;99.90;;;;;;4980787;28;20468;-74
2021/10/29 06:29:15;;;;;;;9.10;7.37;;;8.80;99.90;;;;;;4985238;28;20482;-75
2021/10/29 06:31:42;;;;;;;10.20;8.27;;;8.80;99.90;;;;;;5003592;28;20503;-75
2021/10/29 06:34:08;;;;;;;9.97;8.37;;;8.70;99.90;;;;;;5008487;28;20216;-74
2021/10/29 06:36:33;;;;;;;13.57;8.20;;;8.60;99.90;;;;;;4991598;28;20486;-74
2021/10/29 06:39:00;;;;;;;10.80;7.90;;;8.50;99.90;;;;;;5008068;28;20486;-73
2021/10/29 06:41:27;;;;;;;10.53;8.53;;;8.70;99.90;;;;;;5004117;28;20229;-74
2021/10/29 06:49:06;;;;;;;8.60;7.77;;;8.80;99.90;;;;;;5003600;28;20464;-74
2021/10/29 07:40:18;;;;;;;9.57;8.53;;;8.70;99.90;;;;;;5003532;28;20467;-76
2021/10/29 07:43:02;;;;;;;11.83;10.00;;;8.70;99.90;;;;;;5010552;28;20486;-76
2021/10/29 07:45:28;;;;;;;12.83;9.30;;;8.60;99.90;;;;;;4994443;28;20883;-76
2021/10/29 07:47:55;;;;;;;15.87;10.30;;;8.80;99.90;;;;;;5006411;28;20429;-76
2021/10/29 07:50:24;;;;;;;13.47;10.70;;;8.60;99.90;;;;;;5005635;28;20467;-75
2021/10/29 07:52:52;;;;;;;16.10;10.50;;;8.80;99.90;;;;;;5009383;28;20479;-76
2021/10/29 07:55:21;;;;;;;14.47;11.00;;;8.60;99.90;;;;;;5003000;28;20466;-76
2021/10/29 07:57:47;;;;;;;11.33;9.90;;;8.40;99.90;;;;;;5006889;28;20614;-76
2021/10/29 08:00:15;;;;;;;12.90;10.63;;;8.50;99.90;;;;;;5010981;28;20462;-76
2021/10/29 08:02:41;;;;;;;14.73;10.67;;;8.70;99.90;;;;;;5006671;28;20464;-77
2021/10/29 08:05:09;;;;;;;12.83;10.77;;;8.80;99.90;;;;;;4990639;28;20905;-74
2021/10/29 08:07:34;;;;;;;13.63;10.27;;;8.80;99.90;;;;;;5003464;28;20221;-74
2021/10/29 08:10:02;;;;;;;12.17;10.03;;;8.90;99.90;;;;;;5013264;28;20788;-75
2021/10/29 08:12:29;;;;;;;12.70;10.00;;;8.90;99.90;;;;;;5009560;28;20302;-77
2021/10/29 08:14:54;;;;;;;11.50;10.10;;;8.80;99.90;;;;;;4995478;28;20832;-76
2021/10/29 08:17:20;;;;;;;14.37;11.50;;;8.90;99.90;;;;;;5004881;28;20529;-75
2021/10/29 08:19:47;;;;;;;14.47;11.27;;;9.00;99.90;;;;;;4994248;28;20235;-75
2021/10/29 08:22:13;;;;;;;13.30;10.73;;;9.10;99.90;;;;;;5010900;28;21273;-75
2021/10/29 08:24:39;;;;;;;13.20;11.23;;;9.00;99.90;;;;;;5002060;28;20990;-76
2021/10/29 08:27:06;;;;;;;12.73;10.20;;;8.80;99.90;;;;;;4984284;28;20858;-74
2021/10/29 08:29:32;;;;;;;13.20;10.73;;;8.80;99.90;;;;;;5009483;28;20440;-75
2021/10/29 08:32:03;;;;;;;18.27;12.23;;;8.70;99.90;;;;;;5006241;28;20439;-76
2021/10/29 08:34:30;;;;;;;13.87;11.50;;;8.40;99.90;;;;;;5005074;28;20251;-75
2021/10/29 08:36:57;;;;;;;12.63;10.80;;;8.10;99.90;;;;;;4995904;28;20490;-77
2021/10/29 08:39:28;;;;;;;12.63;10.60;;;8.40;99.90;;;;;;5005155;28;20524;-76
2021/10/29 08:41:54;;;;;;;12.30;10.97;;;8.30;99.90;;;;;;5005068;28;20932;-77
2021/10/29 08:44:20;;;;;;;15.77;11.43;;;8.10;99.90;;;;;;5009560;28;20474;-77
2021/10/29 08:46:46;;;;;;;14.97;11.47;;;8.30;99.90;;;;;;5004091;28;20460;-76
2021/10/29 08:49:12;;;;;;;13.00;10.70;;;8.30;99.90;;;;;;5006348;28;20185;-76
2021/10/29 08:51:39;;;;;;;12.10;10.67;;;8.50;99.90;;;;;;5009951;28;20201;-77
2021/10/29 08:54:06;;;;;;;12.93;10.60;;;8.70;99.90;;;;;;5006421;28;20830;-77
2021/10/29 08:56:33;;;;;;;13.37;11.93;;;8.70;99.90;;;;;;5003795;28;20432;-76
2021/10/29 08:59:20;;;;;;;16.50;12.10;;;8.50;99.90;;;;;;5004676;28;20470;-78
2021/10/29 09:31:22;;;;;;;16.73;13.20;;;9.30;99.90;;;;;;5012178;28;20415;-76
2021/10/29 09:31:31;;;;;;;18.93;12.50;;;9.60;99.90;;;;;;5009176;28;20431;-76
2021/10/29 09:34:05;;;;;;;15.90;12.20;;;9.60;99.90;;;;;;5008403;28;20443;-75
2021/10/29 09:36:32;;;;;;;13.13;11.60;;;9.70;99.90;;;;;;5010332;28;20439;-75
2021/10/29 09:39:02;;;;;;;14.23;11.93;;;9.80;99.90;;;;;;5004118;28;20537;-74
2021/10/29 09:41:28;;;;;;;14.63;12.20;;;9.90;99.90;;;;;;4989065;28;20609;-76
2021/10/29 09:44:16;;;;;;;14.67;12.07;;;9.80;99.90;;;;;;4995096;28;20610;-75
2021/10/29 09:46:57;;;;;;;16.10;13.20;;;9.90;99.90;;;;;;5005815;28;20193;-77
2021/10/29 09:49:28;;;;;;;15.93;11.93;;;9.50;99.90;;;;;;4997375;28;20428;-76
2021/10/29 09:52:19;;;;;;;15.30;13.60;;;9.40;99.90;;;;;;5011276;28;20475;-76
2021/10/29 09:57:31;;;;;;;15.50;13.07;;;9.50;99.90;;;;;;4988502;28;20468;-76
2021/10/29 09:59:58;;;;;;;17.10;13.10;;;9.50;99.90;;;;;;5009482;28;20513;-76
2021/10/29 10:02:29;;;;;;;17.27;13.07;;;10.00;99.90;;;;;;4988788;28;20479;-75
2021/10/29 10:04:56;;;;;;;17.03;12.40;;;9.80;99.90;;;;;;5008314;28;20503;-75
2021/10/29 10:07:27;;;;;;;14.63;12.83;;;9.70;99.90;;;;;;4988228;28;20789;-75
2021/10/29 10:09:57;;;;;;;14.90;12.90;;;9.70;99.90;;;;;;5007615;28;20416;-77
2021/10/29 10:12:24;;;;;;;16.83;13.20;;;9.70;99.90;;;;;;5006380;28;20444;-76
2021/10/29 10:14:54;;;;;;;16.03;13.03;;;10.10;99.90;;;;;;5008545;28;20511;-75
2021/10/29 10:17:23;;;;;;;14.73;11.57;;;10.30;99.90;;;;;;5007680;28;20439;-76
2021/10/29 10:19:50;;;;;;;16.80;12.43;;;10.00;99.90;;;;;;5003547;28;20947;-76
2021/10/29 10:22:19;;;;;;;15.70;12.43;;;9.70;99.90;;;;;;5009755;28;20563;-77
2021/10/29 10:25:00;;;;;;;15.47;13.87;;;10.10;99.90;;;;;;4998925;28;20491;-75
2021/10/29 10:30:04;;;;;;;18.47;13.57;;;10.10;99.90;;;;;;5003867;28;20440;-74
2021/10/29 10:45:56;;;;;;;17.53;14.30;;;10.10;99.90;;;;;;5004406;28;20443;-75
2021/10/29 10:48:30;;;;;;;16.53;13.00;;;10.10;99.90;;;;;;5006949;28;20511;-76
2021/10/29 10:54:44;;;;;;;18.83;15.33;;;9.80;99.90;;;;;;5009842;28;20819;-76
2021/10/29 11:11:12;;;;;;;14.93;13.20;;;10.70;99.90;;;;;;5003356;28;20440;-75
2021/10/29 11:13:44;;;;;;;17.63;13.43;;;10.50;99.90;;;;;;5013225;28;20468;-75
2021/10/29 11:16:38;;;;;;;15.00;12.70;;;10.60;99.90;;;;;;4987273;28;20427;-74
2021/10/29 11:19:09;;;;;;;14.20;12.53;;;10.70;99.90;;;;;;5003657;28;20822;-73
2021/10/29 11:21:48;;;;;;;15.53;12.70;;;10.90;99.90;;;;;;5004841;28;20464;-73
2021/10/29 11:24:15;;;;;;;15.70;13.10;;;10.90;99.90;;;;;;4998972;28;20448;-76
2021/10/29 11:26:44;;;;;;;17.63;13.50;;;11.00;99.90;;;;;;5002408;28;20424;-73
2021/10/29 11:29:11;;;;;;;23.10;14.10;;;11.10;99.90;;;;;;4995061;28;20483;-75
2021/10/29 11:31:49;;;;;;;18.57;12.97;;;10.90;99.90;;;;;;4989168;28;20468;-75
2021/10/29 11:34:17;;;;;;;16.57;14.17;;;10.80;99.90;;;;;;5002930;28;20426;-75
2021/10/29 11:36:50;;;;;;;15.47;13.80;;;10.90;99.90;;;;;;4997661;28;20443;-75
2021/10/29 11:39:19;;;;;;;17.90;14.80;;;11.30;99.90;;;;;;5003940;28;20443;-75
2021/10/29 11:41:49;;;;;;;14.50;12.43;;;11.80;99.90;;;;;;5000770;28;20460;-76
2021/10/29 11:44:19;;;;;;;14.90;12.67;;;12.70;99.90;;;;;;5004166;28;20435;-76
2021/10/29 11:46:46;;;;;;;15.23;13.00;;;14.20;99.90;;;;;;5001077;28;20420;-76
2021/10/29 11:49:19;;;;;;;13.93;12.33;;;15.20;99.90;;;;;;4972765;28;20511;-75
2021/10/29 11:51:46;;;;;;;13.70;12.27;;;16.10;99.90;;;;;;5001719;28;20816;-76
2021/10/29 11:54:23;;;;;;;14.23;12.40;;;16.90;99.90;;;;;;4996725;28;20551;-75
2021/10/29 12:07:48;;;;;;;15.13;13.23;;;18.40;99.90;;;;;;5000392;28;20822;-77
2021/10/29 12:10:18;;;;;;;14.30;12.30;;;18.40;99.90;;;;;;5007624;28;20430;-75
2021/10/29 12:12:47;;;;;;;16.10;12.57;;;19.00;99.90;;;;;;4988994;28;20835;-75
2021/10/29 12:15:17;;;;;;;14.63;13.03;;;19.60;99.90;;;;;;5006210;28;20470;-75
2021/10/29 12:17:54;;;;;;;15.20;13.60;;;19.80;99.90;;;;;;5000969;28;20551;-76
2021/10/29 12:20:24;;;;;;;17.87;13.63;;;19.90;99.90;;;;;;4999684;28;20993;-74
2021/10/29 12:22:55;;;;;;;14.07;12.57;;;20.20;99.90;;;;;;5002814;28;20447;-75
2021/10/29 12:28:26;;;;;;;17.07;14.17;;;21.70;99.90;;;;;;5005360;28;20447;-75
2021/10/29 13:03:22;;;;;;;17.90;15.33;;;22.30;91.60;;;;;;5008759;28;20447;-74
2021/10/29 13:05:57;;;;;;;17.77;15.97;;;22.50;91.50;;;;;;5013134;28;20487;-74
2021/10/29 13:08:26;;;;;;;15.70;14.10;;;21.80;92.00;;;;;;5008711;28;20430;-74
2021/10/29 13:10:57;;;;;;;18.33;16.13;;;21.10;93.00;;;;;;5012236;28;20938;-75
2021/10/29 13:13:30;;;;;;;20.67;15.27;;;20.90;94.10;;;;;;5011818;28;20965;-74
2021/10/29 13:16:04;;;;;;;18.43;16.47;;;20.60;93.70;;;;;;5004720;28;20436;-76
2021/10/29 13:19:11;;;;;;;18.57;15.60;;;19.80;95.30;;;;;;5009912;28;20423;-74
2021/10/29 13:35:26;;;;;;;19.00;15.47;;;19.20;98.30;;;;;;5004565;28;20434;-75
2021/10/29 13:56:51;;;;;;;19.57;15.20;;;17.20;99.90;;;;;;5002836;28;21005;-74
2021/10/29 13:59:38;;;;;;;19.50;15.50;;;17.50;99.90;;;;;;5003040;28;20476;-75
2021/10/29 14:02:31;;;;;;;17.47;15.30;;;17.50;99.90;;;;;;5001333;28;20475;-75
2021/10/29 14:34:57;;;;;;;16.00;13.10;;;16.40;99.90;;;;;;5000880;28;20511;-74
2021/10/29 14:37:36;;;;;;;17.03;14.27;;;16.50;99.90;;;;;;5004015;28;20435;-76
2021/10/29 14:40:10;;;;;;;18.60;14.83;;;16.70;99.90;;;;;;5002194;28;20447;-76
2021/10/29 14:43:24;;;;;;;23.10;16.70;;;16.80;99.90;;;;;;5001273;28;20487;-75
2021/10/29 14:45:29;;;;;;;17.73;15.57;;;16.80;99.90;;;;;;4990439;28;20425;-76
2021/10/29 14:53:12;;;;;;;18.87;14.60;;;16.50;99.90;;;;;;5007267;28;20206;-75
2021/10/29 15:04:32;;;;;;;18.37;14.33;;;16.30;99.90;;;;;;5002703;28;20494;-74
2021/10/29 15:14:46;;;;;;;18.00;15.23;;;16.00;99.90;;;;;;5001003;28;20425;-74
2021/10/29 15:33:18;;;;;;;17.10;15.27;;;16.10;99.90;;;;;;5002849;28;20466;-74
2021/10/29 15:44:07;;;;;;;20.67;16.27;;;15.90;99.90;;;;;;4993146;28;20495;-75
2021/10/29 15:51:26;;;;;;;21.20;18.00;;;15.80;99.90;;;;;;4999865;28;20436;-74
2021/10/29 15:53:52;;;;;;;25.90;19.80;;;15.70;99.90;;;;;;5000691;28;20557;-76
2021/10/29 15:56:37;;;;;;;21.83;18.43;;;15.40;99.90;;;;;;5004277;28;20435;-75
2021/10/29 16:18:03;;;;;;;24.80;18.30;;;14.20;99.90;;;;;;5010623;28;20479;-76
2021/10/29 16:20:29;;;;;;;23.93;18.40;;;14.20;99.90;;;;;;5006833;28;20535;-75
2021/10/29 16:22:57;;;;;;;24.93;18.93;;;13.90;99.90;;;;;;5006564;28;20556;-74
2021/10/29 16:25:35;;;;;;;29.30;20.33;;;14.00;99.90;;;;;;5005913;28;20435;-75
2021/10/29 16:28:03;;;;;;;26.77;20.97;;;14.00;99.90;;;;;;4995499;28;20458;-75
2021/10/29 16:30:33;;;;;;;28.57;22.17;;;14.00;99.90;;;;;;5007946;28;20510;-76
2021/10/29 16:35:27;;;;;;;29.70;21.80;;;13.50;99.90;;;;;;5005845;28;20990;-77
2021/10/29 16:37:53;;;;;;;32.23;22.17;;;13.70;99.90;;;;;;5001458;28;20437;-76
2021/10/29 16:40:19;;;;;;;29.17;21.27;;;13.80;99.90;;;;;;5001979;28;20416;-76
2021/10/29 16:42:45;;;;;;;30.80;21.80;;;13.90;99.90;;;;;;4998259;28;20213;-74
2021/10/29 16:45:14;;;;;;;27.57;20.87;;;13.80;99.90;;;;;;5000598;28;20432;-75
2021/10/29 16:47:43;;;;;;;34.60;22.20;;;13.70;99.90;;;;;;5004626;28;20796;-76
2021/10/29 16:50:10;;;;;;;31.90;21.17;;;13.70;99.90;;;;;;5003192;28;20934;-76
2021/10/29 16:52:37;;;;;;;31.13;22.67;;;13.70;99.90;;;;;;4991172;28;20464;-75
2021/10/29 16:55:03;;;;;;;34.40;21.63;;;13.30;99.90;;;;;;4989105;28;20975;-76
2021/10/29 16:57:29;;;;;;;30.53;22.70;;;13.10;99.90;;;;;;5007596;28;20486;-74
2021/10/29 16:59:55;;;;;;;37.50;22.53;;;13.10;99.90;;;;;;5006782;28;20444;-75
2021/10/29 17:02:20;;;;;;;36.40;23.80;;;12.90;99.90;;;;;;5002940;28;20209;-74
2021/10/29 17:04:46;;;;;;;35.63;23.23;;;12.60;99.90;;;;;;5004704;28;20194;-75
2021/10/29 17:07:11;;;;;;;31.50;22.60;;;12.60;99.90;;;;;;5004537;28;20221;-75
2021/10/29 17:09:37;;;;;;;31.13;21.10;;;12.70;99.90;;;;;;5005927;28;20224;-75
2021/10/29 17:12:03;;;;;;;34.00;22.60;;;12.80;99.90;;;;;;5000937;28;20283;-76
2021/10/29 17:14:31;;;;;;;30.83;21.50;;;12.90;99.90;;;;;;5003967;28;20193;-77
2021/10/29 17:16:57;;;;;;;32.20;22.77;;;12.90;99.90;;;;;;4990433;28;21289;-76
2021/10/29 17:19:23;;;;;;;31.20;23.23;;;12.90;99.90;;;;;;5007087;28;20471;-76
2021/10/29 17:21:49;;;;;;;30.40;19.77;;;12.90;99.90;;;;;;5001712;28;20999;-76
2021/10/29 17:24:16;;;;;;;35.80;22.50;;;12.80;99.90;;;;;;5004126;28;20480;-76
2021/10/29 17:26:42;;;;;;;34.03;21.87;;;12.30;99.90;;;;;;5013043;28;20437;-75
2021/10/29 17:29:08;;;;;;;34.47;23.47;;;12.00;99.90;;;;;;5003957;28;20470;-74
2021/10/29 17:31:34;;;;;;;37.03;23.50;;;11.80;99.90;;;;;;5008747;28;20280;-76
2021/10/29 17:34:00;;;;;;;35.13;22.53;;;11.60;99.90;;;;;;5007728;28;20213;-76
2021/10/29 17:36:26;;;;;;;37.40;23.33;;;11.60;99.90;;;;;;5004933;28;20459;-74
2021/10/29 17:38:51;;;;;;;37.97;23.60;;;11.40;99.90;;;;;;5003359;28;20193;-76
2021/10/29 17:41:17;;;;;;;39.30;24.57;;;11.30;99.90;;;;;;5004171;28;20466;-73
2021/10/29 17:43:43;;;;;;;39.57;22.73;;;11.30;99.90;;;;;;5004719;28;20233;-76
2021/10/29 17:46:09;;;;;;;38.80;23.17;;;11.40;99.90;;;;;;4993843;28;20217;-75
2021/10/29 17:48:35;;;;;;;36.80;23.97;;;11.40;99.90;;;;;;5007332;28;20435;-75